| time (UTC) | temp F | wind direction | speed knots | gust knots | rain 1hr in | rain 24hr in | rain mn in | humidity % | barometer mb |
| 20260503211022 | 81 | 140 | 1.7 | 3.5 | 0.00 | 0.00 | 0.00 | 55 | 1010.3 |
| 20260503210511 | 81 | 65 | 1.7 | 4.3 | 0.00 | 0.00 | 0.00 | 52 | 1010.3 |
| 20260503210005 | 80 | 67 | 1.7 | 4.3 | 0.00 | 0.00 | 0.00 | 55 | 1010.4 |
| 20260503205541 | 80 | 52 | 0.9 | 3.5 | 0.00 | 0.00 | 0.00 | 54 | 1010.5 |
| 20260503204446 | 79 | 55 | 0.9 | 4.3 | 0.00 | 0.00 | 0.00 | 55 | 1010.5 |
| 20260503203940 | 79 | 317 | 1.7 | 4.3 | 0.00 | 0.00 | 0.00 | 53 | 1010.6 |
| 20260503203434 | 79 | 161 | 0.9 | 3.5 | 0.00 | 0.00 | 0.00 | 53 | 1010.7 |
| 20260503202929 | 79 | 155 | 0.9 | 3.5 | 0.00 | 0.00 | 0.00 | 56 | 1010.7 |
| 20260503202423 | 79 | 51 | 0.9 | 3.5 | 0.00 | 0.00 | 0.00 | 53 | 1010.8 |
| 20260503201917 | 79 | 45 | 0.9 | 3.5 | 0.00 | 0.00 | 0.00 | 55 | 1010.8 |
| 20260503201411 | 79 | 177 | 0.9 | 3.5 | 0.00 | 0.00 | 0.00 | 55 | 1010.9 |
| 20260503200905 | 79 | 176 | 0.9 | 3.5 | 0.00 | 0.00 | 0.00 | 57 | 1010.9 |
| 20260503200359 | 79 | 85 | 0.9 | 3.5 | 0.00 | 0.00 | 0.00 | 56 | 1011.0 |
| 20260503195853 | 79 | 53 | 0.9 | 4.3 | 0.00 | 0.00 | 0.00 | 56 | 1011.1 |
| 20260503195346 | 79 | 195 | 0.9 | 4.3 | 0.00 | 0.00 | 0.00 | 55 | 1011.2 |
| 20260503194841 | 79 | 92 | 0.9 | 6.1 | 0.00 | 0.00 | 0.00 | 57 | 1011.2 |
| 20260503194335 | 79 | 99 | 0.9 | 6.1 | 0.00 | 0.00 | 0.00 | 55 | 1011.3 |
| 20260503194047 | 79 | 64 | 0.9 | 4.3 | 0.00 | 0.00 | 0.00 | 55 | 1011.3 |
| 20260503193323 | 78 | 79 | 0.9 | 4.3 | 0.00 | 0.00 | 0.00 | 56 | 1011.4 |
| 20260503192817 | 78 | 308 | 0.9 | 3.5 | 0.00 | 0.00 | 0.00 | 57 | 1011.5 |
| 20260503192311 | 78 | 59 | 1.7 | 3.5 | 0.00 | 0.00 | 0.00 | 56 | 1011.6 |
| 20260503191858 | 79 | 10 | 1.7 | 3.5 | 0.00 | 0.00 | 0.00 | 57 | 1011.6 |
| 20260503190754 | 79 | 227 | 0.9 | 2.6 | 0.00 | 0.00 | 0.00 | 55 | 1011.8 |
| 20260503190247 | 78 | 33 | 0.9 | 2.6 | 0.00 | 0.00 | 0.00 | 57 | 1011.8 |
| 20260503185741 | 78 | 129 | 0.9 | 2.6 | 0.00 | 0.00 | 0.00 | 59 | 1011.9 |
| 20260503185236 | 78 | 166 | 0.9 | 2.6 | 0.00 | 0.00 | 0.00 | 57 | 1011.9 |
| 20260503184728 | 78 | 184 | 0.9 | 2.6 | 0.00 | 0.00 | 0.00 | 61 | 1012.0 |
| 20260503184223 | 78 | 29 | 0.9 | 2.6 | 0.00 | 0.00 | 0.00 | 58 | 1012.1 |
| 20260503183717 | 78 | 129 | 0.9 | 2.6 | 0.00 | 0.00 | 0.00 | 59 | 1012.1 |
| 20260503183211 | 77 | 323 | 0.9 | 5.2 | 0.00 | 0.00 | 0.00 | 59 | 1012.2 |
| 20260503182704 | 77 | 41 | 0.9 | 5.2 | 0.00 | 0.00 | 0.00 | 58 | 1012.2 |
| 20260503182159 | 76 | 60 | 0.9 | 2.6 | 0.00 | 0.00 | 0.00 | 58 | 1012.2 |
| 20260503181653 | 76 | 70 | 0.9 | 2.6 | 0.00 | 0.00 | 0.00 | 60 | 1012.2 |
| 20260503181412 | 76 | 65 | 0.9 | 3.5 | 0.00 | 0.00 | 0.00 | 61 | 1012.3 |
| 20260503180641 | 75 | 79 | 0.9 | 3.5 | 0.00 | 0.00 | 0.00 | 63 | 1012.2 |
| 20260503180134 | 74 | 60 | 0.9 | 2.6 | 0.00 | 0.00 | 0.00 | 65 | 1012.3 |
| 20260503175629 | 74 | 98 | 0.9 | 2.6 | 0.00 | 0.00 | 0.00 | 65 | 1012.4 |
| 20260503175123 | 73 | 104 | 0.0 | 2.6 | 0.00 | 0.00 | 0.00 | 67 | 1012.4 |
| 20260503174617 | 72 | 308 | 0.0 | 1.7 | 0.00 | 0.00 | 0.00 | 68 | 1012.4 |
| 20260503174548 | 72 | 156 | 0.0 | 3.5 | 0.00 | 0.00 | 0.00 | 69 | 1012.5 |
| 20260503173605 | 71 | 267 | 0.9 | 3.5 | 0.00 | 0.00 | 0.00 | 67 | 1012.5 |
| 20260503173058 | 71 | 73 | 0.9 | 1.7 | 0.00 | 0.00 | 0.00 | 68 | 1012.5 |
| 20260503172815 | 71 | 64 | 0.9 | 2.6 | 0.00 | 0.00 | 0.00 | 68 | 1012.6 |
| 20260503172047 | 71 | 134 | 0.9 | 2.6 | 0.00 | 0.00 | 0.00 | 67 | 1012.7 |
| 20260503171540 | 71 | 126 | 0.9 | 2.6 | 0.00 | 0.00 | 0.00 | 67 | 1012.6 |
| 20260503171259 | 71 | 32 | 0.9 | 2.6 | 0.00 | 0.00 | 0.00 | 70 | 1012.7 |
| 20260503170529 | 71 | 53 | 0.0 | 1.7 | 0.00 | 0.00 | 0.00 | 69 | 1012.6 |
| 20260503150919 | 55 | 39 | 0.0 | 0.0 | 0.00 | 0.00 | 0.00 | 94 | 1013.1 |
| 20260503150417 | 54 | 39 | 0.0 | 0.0 | 0.00 | 0.00 | 0.00 | 94 | 1013.1 |
| 20260503150134 | 54 | 39 | 0.0 | 0.0 | 0.00 | 0.00 | 0.00 | 95 | 1013.0 |
| 20260503131255 | 52 | 39 | 0.0 | 0.0 | 0.00 | 0.00 | 0.00 | 94 | 1013.0 |
| 20260503130755 | 52 | 39 | 0.0 | 0.0 | 0.00 | 0.00 | 0.00 | 94 | 1013.0 |
| 20260503130255 | 52 | 39 | 0.0 | 0.0 | 0.00 | 0.00 | 0.00 | 94 | 1013.0 |
| 20260503110637 | 54 | 39 | 0.0 | 0.0 | 0.00 | 0.00 | 0.00 | 92 | 1013.1 |
| 20260503110131 | 54 | 39 | 0.0 | 0.0 | 0.00 | 0.00 | 0.00 | 92 | 1013.1 |
| 20260503090413 | 56 | 39 | 0.0 | 0.0 | 0.00 | 0.00 | 0.00 | 90 | 1013.3 |
| 20260503081313 | 56 | 39 | 0.0 | 0.0 | 0.00 | 0.00 | 0.00 | 89 | 1013.5 |
| 20260503080807 | 57 | 39 | 0.0 | 0.0 | 0.00 | 0.00 | 0.00 | 89 | 1013.5 |
| 20260503080300 | 57 | 39 | 0.0 | 0.0 | 0.00 | 0.00 | 0.00 | 88 | 1013.5 |
| 20260503072718 | 58 | 39 | 0.0 | 0.9 | 0.00 | 0.00 | 0.00 | 87 | 1013.4 |
| 20260503072218 | 58 | 39 | 0.0 | 0.9 | 0.00 | 0.00 | 0.00 | 87 | 1013.4 |
| 20260503071718 | 58 | 39 | 0.0 | 0.9 | 0.00 | 0.00 | 0.00 | 87 | 1013.3 |
| 20260503071436 | 58 | 39 | 0.0 | 1.7 | 0.00 | 0.00 | 0.00 | 86 | 1013.4 |
| 20260503070715 | 58 | 39 | 0.0 | 1.7 | 0.00 | 0.00 | 0.00 | 86 | 1013.4 |
| 20260503070215 | 58 | 4 | 0.0 | 1.7 | 0.00 | 0.00 | 0.00 | 85 | 1013.3 |
| 20260503060207 | 61 | 51 | 0.0 | 0.0 | 0.00 | 0.00 | 0.00 | 82 | 1013.1 |
| 20260503054647 | 61 | 51 | 0.0 | 0.0 | 0.00 | 0.00 | 0.00 | 82 | 1013.0 |
| 20260503054142 | 62 | 51 | 0.0 | 0.0 | 0.00 | 0.00 | 0.00 | 83 | 1013.0 |
| 20260503053905 | 62 | 51 | 0.0 | 0.0 | 0.00 | 0.00 | 0.00 | 83 | 1012.9 |
| 20260503053137 | 62 | 51 | 0.0 | 0.0 | 0.00 | 0.00 | 0.00 | 82 | 1013.0 |
| 20260503052635 | 62 | 51 | 0.0 | 0.0 | 0.00 | 0.00 | 0.00 | 82 | 1013.0 |
| 20260503052133 | 62 | 51 | 0.0 | 0.9 | 0.00 | 0.00 | 0.00 | 81 | 1013.0 |
| 20260503051632 | 62 | 51 | 0.0 | 0.9 | 0.00 | 0.00 | 0.00 | 80 | 1013.0 |
| 20260503051129 | 63 | 51 | 0.0 | 0.9 | 0.00 | 0.00 | 0.00 | 82 | 1013.0 |
| 20260503050848 | 63 | 51 | 0.0 | 0.0 | 0.00 | 0.00 | 0.00 | 82 | 1013.0 |
| 20260503050125 | 63 | 51 | 0.0 | 0.0 | 0.00 | 0.00 | 0.00 | 81 | 1012.9 |
| 20260503045625 | 63 | 51 | 0.0 | 0.0 | 0.00 | 0.00 | 0.00 | 82 | 1012.9 |
| 20260503045605 | 64 | 51 | 0.0 | 0.0 | 0.00 | 0.00 | 0.00 | 81 | 1012.8 |
| 20260503044625 | 64 | 51 | 0.0 | 0.0 | 0.00 | 0.00 | 0.00 | 79 | 1012.8 |
| 20260503044128 | 64 | 51 | 0.0 | 0.0 | 0.00 | 0.00 | 0.00 | 79 | 1012.6 |
| 20260503043626 | 64 | 51 | 0.0 | 0.0 | 0.00 | 0.00 | 0.00 | 79 | 1012.6 |
| 20260503043348 | 65 | 51 | 0.0 | 0.0 | 0.00 | 0.00 | 0.00 | 79 | 1012.6 |
| 20260503042625 | 65 | 51 | 0.0 | 0.0 | 0.00 | 0.00 | 0.00 | 79 | 1012.7 |
| 20260503042125 | 65 | 51 | 0.0 | 0.0 | 0.00 | 0.00 | 0.00 | 78 | 1012.6 |
| 20260503041853 | 65 | 51 | 0.0 | 0.0 | 0.00 | 0.00 | 0.00 | 78 | 1012.5 |
| 20260503041125 | 65 | 51 | 0.0 | 0.0 | 0.00 | 0.00 | 0.00 | 78 | 1012.5 |
| 20260503040625 | 66 | 51 | 0.0 | 0.0 | 0.00 | 0.00 | 0.00 | 78 | 1012.4 |
| 20260503040125 | 66 | 51 | 0.0 | 0.9 | 0.00 | 0.00 | 0.00 | 77 | 1012.4 |
| 20260503035624 | 67 | 51 | 0.0 | 0.9 | 0.00 | 0.00 | 0.00 | 77 | 1012.2 |
| 20260503035349 | 67 | 51 | 0.0 | 0.9 | 0.00 | 0.00 | 0.00 | 77 | 1012.1 |
| 20260503034624 | 67 | 51 | 0.0 | 0.9 | 0.00 | 0.00 | 0.00 | 76 | 1012.0 |
| 20260503034124 | 67 | 51 | 0.0 | 0.0 | 0.00 | 0.00 | 0.00 | 75 | 1012.0 |
| 20260503033625 | 68 | 51 | 0.0 | 0.9 | 0.00 | 0.00 | 0.00 | 75 | 1012.0 |
| 20260503033121 | 68 | 51 | 0.0 | 0.9 | 0.00 | 0.00 | 0.00 | 73 | 1011.9 |
| 20260503032621 | 68 | 51 | 0.0 | 0.9 | 0.00 | 0.00 | 0.00 | 74 | 1011.8 |
| 20260503032121 | 69 | 51 | 0.0 | 0.9 | 0.00 | 0.00 | 0.00 | 75 | 1011.8 |
| 20260503031841 | 69 | 51 | 0.0 | 0.0 | 0.00 | 0.00 | 0.00 | 74 | 1011.8 |
| 20260503031118 | 69 | 51 | 0.0 | 0.0 | 0.00 | 0.00 | 0.00 | 74 | 1011.7 |
| 20260503030615 | 69 | 51 | 0.0 | 0.0 | 0.00 | 0.00 | 0.00 | 73 | 1011.6 |
| 20260503030113 | 70 | 51 | 0.0 | 0.9 | 0.00 | 0.00 | 0.00 | 72 | 1011.5 |
| 20260503030050 | 70 | 51 | 0.0 | 0.9 | 0.00 | 0.00 | 0.00 | 72 | 1011.5 |
| 20260503025111 | 71 | 51 | 0.0 | 0.0 | 0.00 | 0.00 | 0.00 | 71 | 1011.4 |
| 20260503024612 | 71 | 51 | 0.0 | 0.9 | 0.00 | 0.00 | 0.00 | 71 | 1011.4 |
| 20260503024110 | 71 | 51 | 0.0 | 0.9 | 0.00 | 0.00 | 0.00 | 69 | 1011.4 |
| 20260503023608 | 71 | 51 | 0.0 | 0.9 | 0.00 | 0.00 | 0.00 | 69 | 1011.3 |
| 20260503023103 | 71 | 51 | 0.0 | 0.9 | 0.00 | 0.00 | 0.00 | 69 | 1011.4 |
| 20260503022604 | 72 | 51 | 0.0 | 0.9 | 0.00 | 0.00 | 0.00 | 70 | 1011.3 |
| 20260503022102 | 72 | 51 | 0.9 | 1.7 | 0.00 | 0.00 | 0.00 | 68 | 1011.3 |
| 20260503021601 | 72 | 48 | 0.0 | 1.7 | 0.00 | 0.00 | 0.00 | 67 | 1011.2 |
| 20260503021330 | 73 | 111 | 0.0 | 0.9 | 0.00 | 0.00 | 0.00 | 66 | 1011.2 |
| 20260503020600 | 73 | 111 | 0.0 | 0.9 | 0.00 | 0.00 | 0.00 | 65 | 1011.2 |
| 20260503020058 | 73 | 111 | 0.0 | 1.7 | 0.00 | 0.00 | 0.00 | 63 | 1011.2 |
| 20260503015820 | 73 | 111 | 0.9 | 1.7 | 0.00 | 0.00 | 0.00 | 64 | 1011.3 |
| 20260503015056 | 73 | 81 | 0.9 | 1.7 | 0.00 | 0.00 | 0.00 | 62 | 1011.3 |
| 20260503014556 | 73 | 91 | 0.0 | 2.6 | 0.00 | 0.00 | 0.00 | 62 | 1011.3 |
| 20260503014326 | 74 | 75 | 0.9 | 2.6 | 0.00 | 0.00 | 0.00 | 62 | 1011.3 |
| 20260503013552 | 74 | 71 | 0.9 | 2.6 | 0.00 | 0.00 | 0.00 | 61 | 1011.3 |
| 20260503013052 | 74 | 43 | 0.9 | 2.6 | 0.00 | 0.00 | 0.00 | 61 | 1011.3 |
| 20260503012550 | 74 | 127 | 0.9 | 2.6 | 0.00 | 0.00 | 0.00 | 61 | 1011.4 |
| 20260503012047 | 74 | 151 | 0.9 | 2.6 | 0.00 | 0.00 | 0.00 | 61 | 1011.4 |
| 20260503011548 | 74 | 323 | 0.9 | 2.6 | 0.00 | 0.00 | 0.00 | 62 | 1011.3 |
| 20260503011043 | 74 | 128 | 0.9 | 1.7 | 0.00 | 0.00 | 0.00 | 64 | 1011.3 |
| 20260503010543 | 74 | 160 | 0.9 | 2.6 | 0.00 | 0.00 | 0.00 | 62 | 1011.4 |
| 20260503010043 | 74 | 70 | 0.9 | 2.6 | 0.00 | 0.00 | 0.00 | 62 | 1011.3 |
| 20260503005544 | 74 | 47 | 0.0 | 1.7 | 0.00 | 0.00 | 0.00 | 61 | 1011.3 |
| 20260503005044 | 74 | 92 | 0.9 | 2.6 | 0.00 | 0.00 | 0.00 | 61 | 1011.4 |
| 20260503004811 | 74 | 79 | 0.9 | 2.6 | 0.00 | 0.00 | 0.00 | 62 | 1011.4 |
| 20260503004314 | 74 | 65 | 0.0 | 2.6 | 0.00 | 0.00 | 0.00 | 63 | 1011.5 |
| 20260503003547 | 74 | 83 | 0.9 | 2.6 | 0.00 | 0.00 | 0.00 | 63 | 1011.5 |
| 20260503003048 | 74 | 88 | 0.9 | 2.6 | 0.00 | 0.00 | 0.00 | 62 | 1011.5 |
| 20260503002543 | 74 | 31 | 0.9 | 2.6 | 0.00 | 0.00 | 0.00 | 62 | 1011.5 |
| 20260503002043 | 74 | 32 | 0.9 | 2.6 | 0.00 | 0.00 | 0.00 | 63 | 1011.5 |
| 20260503001806 | 74 | 77 | 0.9 | 5.2 | 0.00 | 0.00 | 0.00 | 62 | 1011.6 |
| 20260503001039 | 74 | 83 | 0.9 | 5.2 | 0.00 | 0.00 | 0.00 | 62 | 1011.5 |
| 20260503000540 | 74 | 357 | 0.9 | 2.6 | 0.00 | 0.00 | 0.00 | 63 | 1011.5 |
| 20260503000040 | 74 | 73 | 0.9 | 2.6 | 0.00 | 0.00 | 0.00 | 62 | 1011.6 |
| 20260502235540 | 74 | 70 | 0.9 | 1.7 | 0.00 | 0.00 | 0.00 | 63 | 1011.6 |
| 20260502235039 | 74 | 98 | 0.9 | 3.5 | 0.00 | 0.00 | 0.00 | 63 | 1011.7 |
| 20260502234539 | 74 | 106 | 0.9 | 3.5 | 0.00 | 0.00 | 0.00 | 62 | 1011.7 |
| 20260502234036 | 74 | 34 | 0.9 | 2.6 | 0.00 | 0.00 | 0.00 | 64 | 1011.7 |
| 20260502233755 | 74 | 54 | 0.9 | 3.5 | 0.00 | 0.00 | 0.00 | 62 | 1011.8 |
| 20260502233036 | 74 | 22 | 0.9 | 3.5 | 0.00 | 0.00 | 0.00 | 64 | 1011.9 |
| 20260502232535 | 74 | 125 | 1.7 | 3.5 | 0.00 | 0.00 | 0.00 | 63 | 1012.0 |
| 20260502232259 | 74 | 144 | 0.9 | 3.5 | 0.00 | 0.00 | 0.00 | 64 | 1012.1 |
| 20260502231536 | 74 | 79 | 1.7 | 5.2 | 0.00 | 0.00 | 0.00 | 64 | 1012.2 |
| 20260502231303 | 74 | 56 | 1.7 | 5.2 | 0.00 | 0.00 | 0.00 | 63 | 1012.2 |
| 20260502230536 | 74 | 164 | 1.7 | 5.2 | 0.00 | 0.00 | 0.00 | 63 | 1012.3 |
| 20260502230036 | 75 | 71 | 1.7 | 4.3 | 0.00 | 0.00 | 0.00 | 63 | 1012.4 |
| 20260502225532 | 75 | 76 | 1.7 | 4.3 | 0.00 | 0.00 | 0.00 | 62 | 1012.5 |
| 20260502225032 | 75 | 147 | 0.9 | 3.5 | 0.00 | 0.00 | 0.00 | 64 | 1012.6 |
| 20260502224532 | 75 | 147 | 0.9 | 3.5 | 0.00 | 0.00 | 0.00 | 64 | 1012.6 |
| 20260502224251 | 75 | 67 | 1.7 | 5.2 | 0.00 | 0.00 | 0.00 | 63 | 1012.6 |
| 20260502223532 | 75 | 63 | 1.7 | 5.2 | 0.00 | 0.00 | 0.00 | 62 | 1012.7 |
| 20260502223031 | 75 | 60 | 0.9 | 3.5 | 0.00 | 0.00 | 0.00 | 63 | 1012.7 |
| 20260502222755 | 75 | 96 | 1.7 | 3.5 | 0.00 | 0.00 | 0.00 | 62 | 1012.7 |
| 20260502222031 | 75 | 150 | 0.9 | 4.3 | 0.00 | 0.00 | 0.00 | 64 | 1012.8 |
| 20260502221532 | 75 | 136 | 0.9 | 4.3 | 0.00 | 0.00 | 0.00 | 63 | 1012.9 |
| 20260502221249 | 75 | 154 | 0.9 | 3.5 | 0.00 | 0.00 | 0.00 | 62 | 1012.8 |
| 20260502220532 | 75 | 63 | 0.9 | 2.6 | 0.00 | 0.00 | 0.00 | 62 | 1012.8 |
| 20260502220032 | 75 | 181 | 0.9 | 5.2 | 0.00 | 0.00 | 0.00 | 63 | 1012.9 |
| 20260502215531 | 75 | 36 | 0.9 | 5.2 | 0.00 | 0.00 | 0.00 | 61 | 1013.0 |
| 20260502215032 | 75 | 174 | 1.7 | 3.5 | 0.00 | 0.00 | 0.00 | 63 | 1013.0 |
| 20260502214532 | 75 | 75 | 1.7 | 3.5 | 0.00 | 0.00 | 0.00 | 62 | 1013.2 |
| 20260502214031 | 75 | 28 | 0.9 | 3.5 | 0.00 | 0.00 | 0.00 | 63 | 1013.2 |
| 20260502213755 | 75 | 58 | 0.9 | 3.5 | 0.00 | 0.00 | 0.00 | 63 | 1013.2 |
| 20260502213032 | 75 | 102 | 1.7 | 3.5 | 0.00 | 0.00 | 0.00 | 62 | 1013.3 |
| 20260502212532 | 75 | 51 | 0.9 | 3.5 | 0.00 | 0.00 | 0.00 | 62 | 1013.4 |
| 20260502212032 | 74 | 75 | 0.0 | 2.6 | 0.00 | 0.00 | 0.00 | 66 | 1013.4 |
| 20260502211532 | 74 | 31 | 0.9 | 4.3 | 0.00 | 0.00 | 0.00 | 64 | 1013.4 |